Benton Harbor, MI

12:18 AM EST on January 26, 2015 (GMT -0500)
Southwest Michigan Regional | Change Station
CLOSE
Current Station
Airport
Location: Benton Harbor,
Elevation: 643 ft
Nearby Weather Stations

Elev 643 ft 42.13 °N, 86.43 °W | Updated 25 minutes ago

Clear
Clear
17 °F
Feels Like 9 °F
N
6
Wind Variable Wind from ENE

Today
High -- | Low -- °F
--% Chance of Precip.
Yesterday
High -- | Low -- °F
Precip. -- in
8:04 AM 5:52 PM
Waxing Crescent, 39% visible
Pressure 30.02 in
Visibility 10.0 miles
Clouds Clear
Windchill 9 °F
Dew Point 10 °F
Humidity 74%
Rainfall 0.00 in
Snow Depth Not available.
UV 0 out of 12
Pollen .10 out of 12
Air Quality Not available.
Flu Activity Not available.
METAR KBEH 260453Z AUTO 06005KT 10SM CLR M08/M12 A2999 RMK AO2 SLP165 T10831122 400171083

More Conditions Fewer Conditions

Pressure 30.02 in
Visibility 10.0 miles
Clouds Clear
Windchill 9 °F
Dew Point 10 °F
Humidity 74%
Rainfall 0.00 in
Snow Depth Not available.
UV 0 out of 12
Pollen .10 out of 12
Air Quality Not available.
Flu Activity Not available.
METAR KBEH 260453Z AUTO 06005KT 10SM CLR M08/M12 A2999 RMK AO2 SLP165 T10831122 400171083

More Conditions Fewer Conditions

10-Day Weather Forecast

Almanac

Astronomy

Jan. 26, 2015 Rise Set
Actual Time
Civil Twilight
Nautical Twilight
Astronomical Twilight
Moon
Length of Visible Light
Length of Day
Tomorrow will be .
, % of the Moon is Illuminated

Today's Extremes

State Highs State Lows

Community

WunderPhotos

Upload Photos

1,790,151 photos uploaded!

WunderBlogs® & News

Nearby

Air Quality

  Air Quality AQ Index Pollutant
Not available.

Snow Depth

Station Depth Elevation

Earthquake Activity

City Distance Mag. Time & Date
Minimum magnitude displayed is 2.5.

Coastal Water Temperatures

Place Temperature

Nearby Weather Stations